createdAt,value
2022-09-28T00:01:40.502Z,40.87
2022-09-28T00:04:29.062Z,40.97
2022-09-28T00:07:17.508Z,40.60
2022-09-28T00:10:06.651Z,40.86
2022-09-28T00:12:56.573Z,40.86
2022-09-28T00:15:45.023Z,40.90
2022-09-28T00:18:33.509Z,40.76
2022-09-28T00:21:23.377Z,40.79
2022-09-28T00:24:15.265Z,40.94
2022-09-28T00:27:04.216Z,40.63
2022-09-28T00:29:54.535Z,40.99
2022-09-28T00:32:44.262Z,40.69
2022-09-28T00:35:32.823Z,40.99
2022-09-28T00:38:21.564Z,40.99
2022-09-28T00:41:12.330Z,40.99
2022-09-28T00:44:46.579Z,40.72
2022-09-28T00:47:49.770Z,40.60
2022-09-28T00:50:39.161Z,40.66
2022-09-28T00:53:28.927Z,40.82
2022-09-28T00:56:20.149Z,40.88
2022-09-28T00:59:09.983Z,40.95
2022-09-28T01:01:58.550Z,40.66
2022-09-28T01:04:48.943Z,40.78
2022-09-28T01:07:37.660Z,40.62
2022-09-28T01:10:27.488Z,40.75
2022-09-28T01:13:16.954Z,40.79
2022-09-28T01:16:12.070Z,40.69
2022-09-28T01:19:05.431Z,40.83
2022-09-28T01:22:05.446Z,40.85
2022-09-28T01:24:58.152Z,40.66
2022-09-28T01:27:49.951Z,40.99
2022-09-28T01:30:43.773Z,40.76
2022-09-28T01:33:37.969Z,40.79
2022-09-28T01:36:29.101Z,40.89
2022-09-28T01:39:20.418Z,40.92
2022-09-28T01:42:12.570Z,41.04
2022-09-28T01:45:06.635Z,40.95
2022-09-28T01:47:59.628Z,40.79
2022-09-28T01:50:48.976Z,41.09
2022-09-28T01:53:39.098Z,41.03
2022-09-28T01:56:30.271Z,40.87
2022-09-28T01:59:20.519Z,40.96
2022-09-28T02:02:13.930Z,40.89
2022-09-28T02:05:06.286Z,40.75
2022-09-28T02:07:59.562Z,40.67
2022-09-28T02:10:51.770Z,40.66
2022-09-28T02:13:42.678Z,41.05
2022-09-28T02:16:33.836Z,41.13
2022-09-28T02:19:25.844Z,41.15
2022-09-28T02:22:23.499Z,40.96
2022-09-28T02:25:15.832Z,40.91
2022-09-28T02:28:06.503Z,40.95
2022-09-28T02:30:57.097Z,41.01
2022-09-28T02:33:46.204Z,40.87
2022-09-28T02:36:36.100Z,41.10
2022-09-28T02:39:24.714Z,40.95
2022-09-28T02:42:18.509Z,41.09
2022-09-28T02:45:15.155Z,40.82
2022-09-28T02:48:16.033Z,40.82
2022-09-28T02:51:09.303Z,40.92
2022-09-28T02:54:07.726Z,40.92
2022-09-28T02:57:08.070Z,40.99
2022-09-28T03:00:06.546Z,41.00
2022-09-28T03:03:02.764Z,40.85
2022-09-28T03:05:57.206Z,40.92
2022-09-28T03:08:48.879Z,40.92
2022-09-28T03:11:44.729Z,40.99
2022-09-28T03:14:33.273Z,41.01
2022-09-28T03:17:22.058Z,41.01
2022-09-28T03:20:14.624Z,40.90
2022-09-28T03:26:12.613Z,41.01
2022-09-28T03:29:04.555Z,40.80
2022-09-28T03:31:52.982Z,41.21
2022-09-28T03:34:41.434Z,41.04
2022-09-28T03:37:30.581Z,41.02
2022-09-28T03:40:19.117Z,41.04
2022-09-28T03:43:07.694Z,41.13
2022-09-28T03:45:58.464Z,40.95
2022-09-28T03:48:46.987Z,41.09
2022-09-28T03:51:36.943Z,41.16
2022-09-28T03:54:25.404Z,41.20
2022-09-28T03:57:13.919Z,40.95
2022-09-28T04:00:02.962Z,40.95
2022-09-28T04:02:53.967Z,41.21
2022-09-28T04:05:50.448Z,41.19
2022-09-28T04:08:39.018Z,41.00
2022-09-28T04:11:34.954Z,41.08
2022-09-28T04:14:31.384Z,40.56
2022-09-28T04:17:19.969Z,40.65
2022-09-28T04:20:10.619Z,40.82
2022-09-28T04:22:59.612Z,40.86
2022-09-28T04:25:55.759Z,40.91
2022-09-28T04:29:12.323Z,40.88
2022-09-28T04:32:02.032Z,41.26
2022-09-28T04:34:51.350Z,41.38
2022-09-28T04:37:41.196Z,41.39
2022-09-28T04:40:30.114Z,41.25
2022-09-28T04:43:18.744Z,41.51
2022-09-28T04:46:07.683Z,41.22
2022-09-28T04:48:56.187Z,41.76
2022-09-28T04:51:44.608Z,41.34
2022-09-28T04:54:34.476Z,41.56
2022-09-28T04:57:25.515Z,41.61
2022-09-28T05:00:15.284Z,41.59
2022-09-28T05:03:03.711Z,41.65
2022-09-28T05:05:52.185Z,41.85
2022-09-28T05:08:40.899Z,41.64
2022-09-28T05:11:31.019Z,41.94
2022-09-28T05:14:19.815Z,41.66
2022-09-28T05:17:08.273Z,41.76
2022-09-28T05:19:56.704Z,41.72
2022-09-28T05:22:45.138Z,41.57
2022-09-28T05:25:33.524Z,41.79
2022-09-28T05:28:26.149Z,41.52
2022-09-28T05:31:14.632Z,41.65
2022-09-28T05:34:03.174Z,42.01
2022-09-28T05:36:51.603Z,41.65
2022-09-28T05:39:40.391Z,41.70
2022-09-28T05:42:28.831Z,41.35
2022-09-28T05:45:18.819Z,41.74
2022-09-28T05:48:07.313Z,41.86
2022-09-28T05:50:55.883Z,41.69
2022-09-28T05:53:44.290Z,41.55
2022-09-28T05:56:32.886Z,41.94
2022-09-28T05:59:21.332Z,41.78
2022-09-28T06:02:12.638Z,41.96
2022-09-28T06:05:01.126Z,41.50
2022-09-28T06:07:49.793Z,41.67
2022-09-28T06:10:38.280Z,41.51
2022-09-28T06:13:27.812Z,41.90
2022-09-28T06:16:16.829Z,41.93
2022-09-28T06:19:07.108Z,42.06
2022-09-28T06:21:57.550Z,42.18
2022-09-28T06:24:47.799Z,41.87
2022-09-28T06:27:36.297Z,41.33
2022-09-28T06:30:26.783Z,41.99
2022-09-28T06:33:16.421Z,41.40
2022-09-28T06:36:06.850Z,41.76
2022-09-28T06:38:55.842Z,41.49
2022-09-28T06:41:44.341Z,41.50
2022-09-28T06:44:32.830Z,41.93
2022-09-28T06:47:21.234Z,41.81
2022-09-28T06:50:14.533Z,41.96
2022-09-28T06:53:05.891Z,42.03
2022-09-28T06:55:54.406Z,42.00
2022-09-28T06:58:42.883Z,42.25
2022-09-28T07:01:31.478Z,42.20
2022-09-28T07:04:19.975Z,42.10
2022-09-28T07:07:09.669Z,42.13
2022-09-28T07:09:59.430Z,42.18
2022-09-28T07:12:47.879Z,42.01
2022-09-28T07:15:37.046Z,42.10
2022-09-28T07:18:26.356Z,41.89
2022-09-28T07:21:26.424Z,41.87
2022-09-28T07:24:18.003Z,41.91
2022-09-28T07:27:08.825Z,41.93
2022-09-28T07:29:58.836Z,42.03
2022-09-28T07:32:48.450Z,41.92
2022-09-28T07:35:36.901Z,41.82
2022-09-28T07:38:26.049Z,41.83
2022-09-28T07:41:16.950Z,42.00
2022-09-28T07:44:07.069Z,42.12
2022-09-28T07:46:56.141Z,41.89
2022-09-28T07:49:44.709Z,41.97
2022-09-28T07:52:35.207Z,42.03
2022-09-28T07:55:23.606Z,41.95
2022-09-28T07:58:12.596Z,41.83
2022-09-28T08:01:05.699Z,41.97
2022-09-28T08:03:56.084Z,42.15
2022-09-28T08:06:44.942Z,41.89
2022-09-28T08:09:33.432Z,42.14
2022-09-28T08:12:22.463Z,42.09
2022-09-28T08:15:12.118Z,41.89
2022-09-28T08:18:05.067Z,41.93
2022-09-28T08:21:12.209Z,42.31
2022-09-28T08:24:00.687Z,42.24
2022-09-28T08:26:49.434Z,42.09
2022-09-28T08:29:37.925Z,42.28
2022-09-28T08:32:26.413Z,42.28
2022-09-28T08:35:16.604Z,42.00
2022-09-28T08:38:06.278Z,42.16
2022-09-28T08:41:05.118Z,41.94
2022-09-28T08:44:10.298Z,41.85
2022-09-28T08:47:01.945Z,42.26
2022-09-28T08:49:51.178Z,42.08
2022-09-28T08:52:41.912Z,41.89
2022-09-28T08:55:32.243Z,41.96
2022-09-28T08:58:25.608Z,41.99
2022-09-28T09:01:16.697Z,42.05
2022-09-28T09:04:06.998Z,41.90
2022-09-28T09:07:10.567Z,41.99
2022-09-28T09:10:08.437Z,41.98
2022-09-28T09:13:04.217Z,41.70
2022-09-28T09:15:54.178Z,41.97
2022-09-28T09:18:45.366Z,41.75
2022-09-28T09:21:41.692Z,41.98
2022-09-28T09:24:37.447Z,41.80
2022-09-28T09:27:46.265Z,42.06
2022-09-28T09:30:41.567Z,41.71
2022-09-28T09:33:54.827Z,41.91
2022-09-28T09:36:56.201Z,42.06
2022-09-28T09:39:56.419Z,41.89
2022-09-28T09:42:56.851Z,42.16
2022-09-28T09:46:00.672Z,42.16
2022-09-28T09:48:54.236Z,42.08
2022-09-28T09:51:45.825Z,41.44
2022-09-28T09:54:37.619Z,41.02
2022-09-28T09:57:29.235Z,41.01
2022-09-28T10:00:19.856Z,41.25
2022-09-28T10:03:11.400Z,41.17
2022-09-28T10:06:01.893Z,41.26
2022-09-28T10:08:53.839Z,41.00
2022-09-28T10:11:45.323Z,40.79
2022-09-28T10:14:33.796Z,41.40
2022-09-28T10:17:27.366Z,41.41
2022-09-28T10:20:16.872Z,41.54
2022-09-28T10:23:07.381Z,41.39
2022-09-28T10:25:59.489Z,41.20
2022-09-28T10:28:50.303Z,40.92
2022-09-28T10:31:40.795Z,41.11
2022-09-28T10:34:31.840Z,40.98
2022-09-28T10:37:20.899Z,40.61
2022-09-28T10:40:30.319Z,40.87
2022-09-28T10:43:22.774Z,40.93
2022-09-28T10:46:12.953Z,40.50
2022-09-28T10:49:04.958Z,40.40
2022-09-28T10:51:56.266Z,40.05
2022-09-28T10:54:54.313Z,39.83
2022-09-28T10:57:42.853Z,39.10
2022-09-28T11:00:34.226Z,39.69
2022-09-28T11:03:25.755Z,39.24
2022-09-28T11:06:14.412Z,38.03
2022-09-28T11:09:07.439Z,37.52
2022-09-28T11:11:56.066Z,37.32
2022-09-28T11:14:46.203Z,36.64
2022-09-28T11:17:38.648Z,36.75
2022-09-28T11:20:36.033Z,36.53
2022-09-28T11:23:29.429Z,36.61
2022-09-28T11:26:19.205Z,35.95
2022-09-28T11:29:18.358Z,36.07
2022-09-28T11:32:08.084Z,36.13
2022-09-28T11:35:00.414Z,36.95
2022-09-28T11:38:00.598Z,37.71
2022-09-28T11:40:55.705Z,37.86
2022-09-28T11:43:59.637Z,38.04
2022-09-28T11:46:55.600Z,38.66
2022-09-28T11:49:46.858Z,38.70
2022-09-28T11:52:40.500Z,38.43
2022-09-28T11:55:34.967Z,38.92
2022-09-28T11:58:27.219Z,38.83
2022-09-28T12:01:23.473Z,38.35
2022-09-28T12:04:16.732Z,38.33
2022-09-28T12:07:10.021Z,38.68
2022-09-28T12:10:01.160Z,38.45
2022-09-28T12:12:52.104Z,38.63
2022-09-28T12:16:07.773Z,38.28
2022-09-28T12:21:53.202Z,38.24
2022-09-28T12:24:44.182Z,38.17
2022-09-28T12:27:38.755Z,38.00
2022-09-28T12:30:27.479Z,38.35
2022-09-28T12:33:16.873Z,38.47
2022-09-28T12:36:14.851Z,38.52
2022-09-28T12:39:21.660Z,38.50
2022-09-28T12:42:28.703Z,38.70
2022-09-28T12:45:27.904Z,38.55
2022-09-28T12:48:41.647Z,39.23
2022-09-28T12:51:42.955Z,39.23
2022-09-28T12:54:41.865Z,38.68
2022-09-28T12:57:39.761Z,39.02
2022-09-28T13:00:34.660Z,39.22
2022-09-28T13:03:36.779Z,38.99
2022-09-28T13:06:39.006Z,38.98
2022-09-28T13:09:27.981Z,39.46
2022-09-28T13:12:27.991Z,39.22
2022-09-28T13:15:32.173Z,39.17
2022-09-28T13:18:26.097Z,39.53
2022-09-28T13:21:26.827Z,39.70
2022-09-28T13:24:32.196Z,39.52
2022-09-28T13:27:30.445Z,39.38
2022-09-28T13:30:19.762Z,39.47
2022-09-28T13:33:09.695Z,39.67
2022-09-28T13:35:58.196Z,39.27
2022-09-28T13:38:51.933Z,39.53
2022-09-28T13:41:51.110Z,39.84
2022-09-28T13:45:04.487Z,39.77
2022-09-28T13:48:05.808Z,38.25
2022-09-28T13:51:15.888Z,37.08
2022-09-28T13:54:41.881Z,37.06
2022-09-28T13:57:33.505Z,38.05
2022-09-28T14:00:27.546Z,38.77
2022-09-28T14:03:27.106Z,38.95
2022-09-28T14:06:26.981Z,38.98
2022-09-28T14:09:52.040Z,38.89
2022-09-28T14:12:51.585Z,39.57
2022-09-28T14:15:42.307Z,39.55
2022-09-28T14:18:34.616Z,39.24
2022-09-28T14:21:48.445Z,39.13
2022-09-28T14:24:55.385Z,39.26
2022-09-28T14:28:04.950Z,39.07
2022-09-28T14:30:58.174Z,39.03
2022-09-28T14:33:57.931Z,38.67
2022-09-28T14:37:10.291Z,38.70
2022-09-28T14:40:16.508Z,39.46
2022-09-28T14:43:28.124Z,39.10
2022-09-28T14:46:37.163Z,39.52
2022-09-28T14:49:50.324Z,39.46
2022-09-28T14:52:41.915Z,39.40
2022-09-28T14:55:33.860Z,39.34
2022-09-28T14:58:26.744Z,39.07
2022-09-28T15:01:20.219Z,39.07
2022-09-28T15:04:11.686Z,39.31
2022-09-28T15:07:00.287Z,39.18
2022-09-28T15:09:50.905Z,38.95
2022-09-28T15:12:39.718Z,38.88
2022-09-28T15:15:33.626Z,38.85
2022-09-28T15:18:36.537Z,39.00
2022-09-28T15:21:25.792Z,39.16
2022-09-28T15:24:29.027Z,38.85
2022-09-28T15:27:19.162Z,38.93
2022-09-28T15:30:22.920Z,38.84
2022-09-28T15:33:44.229Z,38.57
2022-09-28T15:36:35.179Z,38.65
2022-09-28T15:39:27.093Z,38.52
2022-09-28T15:42:17.590Z,37.58
2022-09-28T15:45:24.863Z,37.50
2022-09-28T15:48:21.358Z,37.54
2022-09-28T15:51:12.272Z,37.81
2022-09-28T15:54:04.383Z,38.07
2022-09-28T15:56:55.178Z,38.25
2022-09-28T15:59:45.193Z,38.41
2022-09-28T16:02:33.698Z,38.33
2022-09-28T16:05:35.690Z,38.51
2022-09-28T16:08:39.530Z,38.85
2022-09-28T16:11:30.159Z,38.70
2022-09-28T16:14:19.838Z,38.90
2022-09-28T16:17:17.716Z,38.73
2022-09-28T16:20:22.286Z,38.79
2022-09-28T16:23:19.795Z,38.98
2022-09-28T16:26:14.504Z,38.69
2022-09-28T16:29:09.487Z,39.04
2022-09-28T16:31:58.054Z,38.63
2022-09-28T16:34:47.671Z,38.57
2022-09-28T16:37:36.214Z,38.64
2022-09-28T16:40:24.889Z,38.59
2022-09-28T16:43:20.029Z,38.77
2022-09-28T16:46:10.271Z,38.61
2022-09-28T16:49:02.348Z,38.45
2022-09-28T16:51:50.925Z,38.08
2022-09-28T16:54:57.215Z,38.64
2022-09-28T16:57:46.196Z,38.72
2022-09-28T17:00:36.235Z,38.79
2022-09-28T17:03:25.770Z,39.01
2022-09-28T17:06:15.440Z,38.83
2022-09-28T17:09:06.986Z,38.71
2022-09-28T17:11:56.665Z,38.58
2022-09-28T17:14:46.687Z,38.89
2022-09-28T17:17:38.185Z,39.04
2022-09-28T17:20:29.509Z,39.13
2022-09-28T17:26:19.126Z,39.09
2022-09-28T17:29:09.807Z,39.49
2022-09-28T17:31:58.242Z,39.49
2022-09-28T17:34:55.982Z,38.99
2022-09-28T17:37:57.574Z,39.06
2022-09-28T17:40:48.163Z,39.32
2022-09-28T17:43:36.919Z,39.21
2022-09-28T17:46:28.918Z,39.28
2022-09-28T17:49:18.672Z,39.57
2022-09-28T17:52:08.523Z,39.17
2022-09-28T17:54:56.968Z,39.57
2022-09-28T17:57:45.386Z,39.45
2022-09-28T18:00:34.139Z,39.43
2022-09-28T18:03:24.384Z,39.34
2022-09-28T18:06:15.420Z,39.74
2022-09-28T18:09:05.662Z,39.76
2022-09-28T18:12:01.022Z,39.77
2022-09-28T18:14:49.560Z,39.40
2022-09-28T18:17:38.060Z,40.43
2022-09-28T18:20:27.284Z,39.85
2022-09-28T18:23:15.836Z,40.24
2022-09-28T18:26:06.174Z,40.20
2022-09-28T18:28:56.096Z,40.28
2022-09-28T18:31:44.535Z,40.38
2022-09-28T18:34:36.191Z,40.19
2022-09-28T18:37:24.613Z,40.19
2022-09-28T18:40:13.952Z,40.49
2022-09-28T18:43:04.197Z,40.48
2022-09-28T18:45:52.579Z,40.36
2022-09-28T18:48:41.627Z,40.34
2022-09-28T18:51:30.250Z,40.39
2022-09-28T18:54:18.863Z,40.22
2022-09-28T18:57:07.503Z,40.24
2022-09-28T18:59:57.334Z,40.23
2022-09-28T19:02:48.179Z,40.44
2022-09-28T19:05:36.717Z,40.38
2022-09-28T19:08:27.682Z,40.30
2022-09-28T19:11:17.593Z,40.13
2022-09-28T19:14:07.131Z,40.71
2022-09-28T19:16:56.877Z,40.87
2022-09-28T19:19:45.385Z,41.58
2022-09-28T19:22:33.880Z,41.98
2022-09-28T19:25:22.468Z,41.39
2022-09-28T19:28:10.953Z,41.67
2022-09-28T19:30:59.921Z,41.92
2022-09-28T19:33:50.408Z,42.02
2022-09-28T19:36:39.122Z,41.79
2022-09-28T19:39:27.593Z,41.67
2022-09-28T19:42:16.069Z,41.80
2022-09-28T19:45:05.192Z,41.69
2022-09-28T19:47:58.669Z,41.57
2022-09-28T19:50:59.730Z,41.83
2022-09-28T19:53:48.322Z,41.68
2022-09-28T19:56:36.811Z,41.87
2022-09-28T19:59:25.638Z,41.72
2022-09-28T20:02:14.198Z,41.73
2022-09-28T20:05:03.003Z,41.50
2022-09-28T20:07:53.115Z,41.68
2022-09-28T20:10:41.606Z,41.62
2022-09-28T20:13:32.265Z,41.70
2022-09-28T20:16:24.373Z,41.68
2022-09-28T20:19:12.978Z,41.72
2022-09-28T20:22:03.116Z,41.92
2022-09-28T20:24:53.273Z,41.65
2022-09-28T20:27:44.342Z,41.88
2022-09-28T20:30:33.024Z,41.82
2022-09-28T20:33:28.530Z,41.44
2022-09-28T20:36:19.315Z,41.86
2022-09-28T20:39:07.895Z,41.54
2022-09-28T20:41:57.757Z,41.76
2022-09-28T20:44:46.640Z,41.73
2022-09-28T20:47:35.349Z,41.57
2022-09-28T20:50:23.789Z,41.50
2022-09-28T20:53:12.336Z,41.54
2022-09-28T20:56:01.677Z,41.65
2022-09-28T20:58:54.176Z,41.78
2022-09-28T21:01:42.876Z,41.40
2022-09-28T21:04:32.309Z,41.22
2022-09-28T21:07:20.813Z,41.25
2022-09-28T21:10:11.134Z,40.70
2022-09-28T21:12:59.551Z,40.98
2022-09-28T21:15:49.598Z,40.68
2022-09-28T21:18:38.435Z,41.49
2022-09-28T21:21:28.148Z,41.63
2022-09-28T21:24:16.676Z,41.82
2022-09-28T21:27:05.476Z,41.90
2022-09-28T21:29:54.279Z,42.15
2022-09-28T21:32:44.061Z,42.31
2022-09-28T21:35:35.210Z,42.19
2022-09-28T21:38:23.704Z,42.50
2022-09-28T21:41:12.279Z,42.06
2022-09-28T21:44:00.736Z,42.15
2022-09-28T21:46:49.259Z,42.13
2022-09-28T21:49:39.074Z,42.22
2022-09-28T21:52:27.855Z,42.39
2022-09-28T21:55:16.563Z,42.34
2022-09-28T21:58:05.020Z,42.34
2022-09-28T22:00:58.963Z,42.48
2022-09-28T22:03:50.528Z,42.35
2022-09-28T22:06:40.775Z,42.31
2022-09-28T22:09:29.269Z,42.21
2022-09-28T22:12:17.744Z,42.43
2022-09-28T22:15:07.452Z,42.33
2022-09-28T22:17:55.900Z,42.24
2022-09-28T22:20:44.476Z,42.44
2022-09-28T22:23:35.289Z,42.52
2022-09-28T22:26:26.657Z,42.43
2022-09-28T22:29:15.093Z,42.61
2022-09-28T22:32:04.772Z,42.65
2022-09-28T22:34:54.359Z,42.84
2022-09-28T22:37:44.220Z,42.88
2022-09-28T22:40:34.026Z,42.75
2022-09-28T22:43:23.651Z,42.42
2022-09-28T22:46:13.380Z,42.48
2022-09-28T22:49:02.124Z,42.61
2022-09-28T22:51:50.609Z,42.88
2022-09-28T22:54:40.491Z,42.70
2022-09-28T22:57:30.809Z,42.72
2022-09-28T23:00:19.536Z,42.68
2022-09-28T23:03:07.992Z,42.86
2022-09-28T23:05:57.413Z,42.71
2022-09-28T23:08:47.219Z,42.76
2022-09-28T23:11:35.719Z,42.94
2022-09-28T23:14:25.602Z,42.97
2022-09-28T23:17:14.008Z,42.89
2022-09-28T23:20:03.152Z,43.11
2022-09-28T23:22:51.888Z,43.16
2022-09-28T23:25:40.384Z,42.85
2022-09-28T23:28:29.321Z,42.84
2022-09-28T23:31:22.203Z,42.93
2022-09-28T23:34:11.832Z,42.95
2022-09-28T23:37:00.611Z,42.80
2022-09-28T23:39:50.237Z,43.14
2022-09-28T23:42:38.689Z,42.81
2022-09-28T23:45:27.080Z,42.98
2022-09-28T23:48:16.976Z,43.18
2022-09-28T23:51:05.574Z,42.88
2022-09-28T23:53:54.228Z,42.95
2022-09-28T23:56:42.595Z,42.92
2022-09-28T23:59:31.045Z,43.25
